sensor_id;sensor_type;location;lat;lon;timestamp;P1;durP1;ratioP1;P2;durP2;ratioP2
21486;SDS011;10905;50.822;4.336;2023-07-09T00:00:03;0.30;;;0.08;;
21486;SDS011;10905;50.822;4.336;2023-07-09T00:02:31;5.25;;;0.40;;
21486;SDS011;10905;50.822;4.336;2023-07-09T00:04:56;1.85;;;0.82;;
21486;SDS011;10905;50.822;4.336;2023-07-09T00:07:29;1.17;;;0.13;;
21486;SDS011;10905;50.822;4.336;2023-07-09T00:09:56;1.42;;;0.45;;
21486;SDS011;10905;50.822;4.336;2023-07-09T00:12:23;0.15;;;0.15;;
21486;SDS011;10905;50.822;4.336;2023-07-09T00:14:49;1.10;;;0.70;;
21486;SDS011;10905;50.822;4.336;2023-07-09T00:17:33;1.27;;;0.85;;
21486;SDS011;10905;50.822;4.336;2023-07-09T00:19:59;0.52;;;0.52;;
21486;SDS011;10905;50.822;4.336;2023-07-09T00:22:25;0.38;;;0.38;;
21486;SDS011;10905;50.822;4.336;2023-07-09T00:24:54;1.05;;;0.30;;
21486;SDS011;10905;50.822;4.336;2023-07-09T00:27:23;0.40;;;0.20;;
21486;SDS011;10905;50.822;4.336;2023-07-09T00:29:52;1.25;;;0.80;;
21486;SDS011;10905;50.822;4.336;2023-07-09T00:32:18;1.08;;;0.20;;
21486;SDS011;10905;50.822;4.336;2023-07-09T00:34:49;0.98;;;0.70;;
21486;SDS011;10905;50.822;4.336;2023-07-09T00:37:16;0.25;;;0.25;;
21486;SDS011;10905;50.822;4.336;2023-07-09T00:39:44;0.55;;;0.22;;
21486;SDS011;10905;50.822;4.336;2023-07-09T00:42:12;0.80;;;0.50;;
21486;SDS011;10905;50.822;4.336;2023-07-09T00:44:45;0.30;;;0.30;;
21486;SDS011;10905;50.822;4.336;2023-07-09T00:47:28;0.52;;;0.05;;
21486;SDS011;10905;50.822;4.336;2023-07-09T00:50:11;2.50;;;0.98;;
21486;SDS011;10905;50.822;4.336;2023-07-09T00:52:46;2.17;;;0.60;;
21486;SDS011;10905;50.822;4.336;2023-07-09T00:55:19;1.45;;;1.13;;
21486;SDS011;10905;50.822;4.336;2023-07-09T00:57:51;0.80;;;0.70;;
21486;SDS011;10905;50.822;4.336;2023-07-09T01:00:23;0.10;;;0.10;;
21486;SDS011;10905;50.822;4.336;2023-07-09T01:02:54;0.77;;;0.43;;
21486;SDS011;10905;50.822;4.336;2023-07-09T01:05:23;1.42;;;0.45;;
21486;SDS011;10905;50.822;4.336;2023-07-09T01:07:49;1.42;;;0.52;;
21486;SDS011;10905;50.822;4.336;2023-07-09T01:10:15;0.65;;;0.60;;
21486;SDS011;10905;50.822;4.336;2023-07-09T01:12:42;0.43;;;0.43;;
21486;SDS011;10905;50.822;4.336;2023-07-09T01:15:09;0.80;;;0.80;;
21486;SDS011;10905;50.822;4.336;2023-07-09T01:17:36;0.10;;;0.10;;
21486;SDS011;10905;50.822;4.336;2023-07-09T01:20:02;0.80;;;0.75;;
21486;SDS011;10905;50.822;4.336;2023-07-09T01:22:28;1.08;;;0.80;;
21486;SDS011;10905;50.822;4.336;2023-07-09T01:24:56;0.20;;;0.20;;
21486;SDS011;10905;50.822;4.336;2023-07-09T01:27:35;2.58;;;1.17;;
21486;SDS011;10905;50.822;4.336;2023-07-09T01:30:03;0.68;;;0.50;;
21486;SDS011;10905;50.822;4.336;2023-07-09T01:32:41;5.20;;;0.52;;
21486;SDS011;10905;50.822;4.336;2023-07-09T01:35:11;0.38;;;0.32;;
21486;SDS011;10905;50.822;4.336;2023-07-09T01:37:40;1.55;;;1.05;;
21486;SDS011;10905;50.822;4.336;2023-07-09T01:40:07;1.42;;;0.80;;
21486;SDS011;10905;50.822;4.336;2023-07-09T01:42:35;0.75;;;0.65;;
21486;SDS011;10905;50.822;4.336;2023-07-09T01:45:03;0.57;;;0.57;;
21486;SDS011;10905;50.822;4.336;2023-07-09T01:47:30;1.45;;;0.68;;
21486;SDS011;10905;50.822;4.336;2023-07-09T01:49:56;0.05;;;0.05;;
21486;SDS011;10905;50.822;4.336;2023-07-09T01:52:23;0.47;;;0.47;;
21486;SDS011;10905;50.822;4.336;2023-07-09T01:54:55;0.30;;;0.30;;
21486;SDS011;10905;50.822;4.336;2023-07-09T01:57:23;0.10;;;0.10;;
21486;SDS011;10905;50.822;4.336;2023-07-09T01:59:58;0.13;;;0.13;;
21486;SDS011;10905;50.822;4.336;2023-07-09T02:02:26;0.25;;;0.25;;
21486;SDS011;10905;50.822;4.336;2023-07-09T02:04:52;0.17;;;0.17;;
21486;SDS011;10905;50.822;4.336;2023-07-09T02:07:20;0.35;;;0.30;;
21486;SDS011;10905;50.822;4.336;2023-07-09T02:09:47;4.85;;;0.35;;
21486;SDS011;10905;50.822;4.336;2023-07-09T02:12:14;0.63;;;0.40;;
21486;SDS011;10905;50.822;4.336;2023-07-09T02:14:41;0.98;;;0.47;;
21486;SDS011;10905;50.822;4.336;2023-07-09T02:17:08;0.20;;;0.20;;
21486;SDS011;10905;50.822;4.336;2023-07-09T02:19:35;0.60;;;0.30;;
21486;SDS011;10905;50.822;4.336;2023-07-09T02:22:00;0.43;;;0.32;;
21486;SDS011;10905;50.822;4.336;2023-07-09T02:24:26;0.20;;;0.20;;
21486;SDS011;10905;50.822;4.336;2023-07-09T02:26:55;0.75;;;0.55;;
21486;SDS011;10905;50.822;4.336;2023-07-09T02:29:22;6.83;;;0.73;;
21486;SDS011;10905;50.822;4.336;2023-07-09T02:31:49;2.08;;;0.70;;
21486;SDS011;10905;50.822;4.336;2023-07-09T02:34:16;0.50;;;0.40;;
21486;SDS011;10905;50.822;4.336;2023-07-09T02:36:43;0.45;;;0.30;;
21486;SDS011;10905;50.822;4.336;2023-07-09T02:39:09;0.30;;;0.13;;
21486;SDS011;10905;50.822;4.336;2023-07-09T02:41:36;2.40;;;0.75;;
21486;SDS011;10905;50.822;4.336;2023-07-09T02:44:01;2.25;;;0.65;;
21486;SDS011;10905;50.822;4.336;2023-07-09T02:46:28;0.25;;;0.10;;
21486;SDS011;10905;50.822;4.336;2023-07-09T02:48:53;3.42;;;1.13;;
21486;SDS011;10905;50.822;4.336;2023-07-09T02:51:19;0.28;;;0.13;;
21486;SDS011;10905;50.822;4.336;2023-07-09T02:53:45;0.17;;;0.15;;
21486;SDS011;10905;50.822;4.336;2023-07-09T02:56:10;0.45;;;0.10;;
21486;SDS011;10905;50.822;4.336;2023-07-09T02:58:36;0.60;;;0.20;;
21486;SDS011;10905;50.822;4.336;2023-07-09T03:01:02;5.18;;;0.43;;
21486;SDS011;10905;50.822;4.336;2023-07-09T03:03:28;5.75;;;0.63;;
21486;SDS011;10905;50.822;4.336;2023-07-09T03:05:55;0.40;;;0.32;;
21486;SDS011;10905;50.822;4.336;2023-07-09T03:08:21;2.35;;;0.55;;
21486;SDS011;10905;50.822;4.336;2023-07-09T03:10:46;0.30;;;0.30;;
21486;SDS011;10905;50.822;4.336;2023-07-09T03:13:12;0.08;;;0.08;;
21486;SDS011;10905;50.822;4.336;2023-07-09T03:15:37;1.65;;;0.57;;
21486;SDS011;10905;50.822;4.336;2023-07-09T03:18:03;0.40;;;0.32;;
21486;SDS011;10905;50.822;4.336;2023-07-09T03:20:28;0.93;;;0.55;;
21486;SDS011;10905;50.822;4.336;2023-07-09T03:22:54;0.68;;;0.47;;
21486;SDS011;10905;50.822;4.336;2023-07-09T03:25:20;0.60;;;0.60;;
21486;SDS011;10905;50.822;4.336;2023-07-09T03:27:48;0.47;;;0.10;;
21486;SDS011;10905;50.822;4.336;2023-07-09T03:30:14;1.02;;;0.85;;
21486;SDS011;10905;50.822;4.336;2023-07-09T03:32:40;0.32;;;0.30;;
21486;SDS011;10905;50.822;4.336;2023-07-09T03:35:07;0.73;;;0.55;;
21486;SDS011;10905;50.822;4.336;2023-07-09T03:37:33;0.88;;;0.60;;
21486;SDS011;10905;50.822;4.336;2023-07-09T03:39:59;1.65;;;0.32;;
21486;SDS011;10905;50.822;4.336;2023-07-09T03:42:25;1.65;;;0.38;;
21486;SDS011;10905;50.822;4.336;2023-07-09T03:44:50;0.55;;;0.55;;
21486;SDS011;10905;50.822;4.336;2023-07-09T03:47:16;4.38;;;0.47;;
21486;SDS011;10905;50.822;4.336;2023-07-09T03:49:43;0.20;;;0.20;;
21486;SDS011;10905;50.822;4.336;2023-07-09T03:52:09;0.40;;;0.40;;
21486;SDS011;10905;50.822;4.336;2023-07-09T03:54:34;2.42;;;0.95;;
21486;SDS011;10905;50.822;4.336;2023-07-09T03:57:00;1.77;;;0.85;;
21486;SDS011;10905;50.822;4.336;2023-07-09T03:59:25;0.80;;;0.47;;
21486;SDS011;10905;50.822;4.336;2023-07-09T04:01:51;2.13;;;0.85;;
21486;SDS011;10905;50.822;4.336;2023-07-09T04:04:17;0.40;;;0.20;;
21486;SDS011;10905;50.822;4.336;2023-07-09T04:06:45;0.65;;;0.47;;
21486;SDS011;10905;50.822;4.336;2023-07-09T04:09:12;1.67;;;0.60;;
21486;SDS011;10905;50.822;4.336;2023-07-09T04:11:37;1.00;;;0.70;;
21486;SDS011;10905;50.822;4.336;2023-07-09T04:14:03;1.10;;;0.38;;
21486;SDS011;10905;50.822;4.336;2023-07-09T04:16:29;2.00;;;0.63;;
21486;SDS011;10905;50.822;4.336;2023-07-09T04:18:54;0.73;;;0.47;;
21486;SDS011;10905;50.822;4.336;2023-07-09T04:21:20;1.95;;;0.30;;
21486;SDS011;10905;50.822;4.336;2023-07-09T04:23:45;2.25;;;0.60;;
21486;SDS011;10905;50.822;4.336;2023-07-09T04:26:14;1.67;;;0.57;;
21486;SDS011;10905;50.822;4.336;2023-07-09T04:28:40;0.60;;;0.60;;
21486;SDS011;10905;50.822;4.336;2023-07-09T04:31:05;1.65;;;0.65;;
21486;SDS011;10905;50.822;4.336;2023-07-09T04:33:31;1.40;;;0.30;;
21486;SDS011;10905;50.822;4.336;2023-07-09T04:35:57;7.78;;;0.80;;
21486;SDS011;10905;50.822;4.336;2023-07-09T04:38:23;1.23;;;0.85;;
21486;SDS011;10905;50.822;4.336;2023-07-09T04:40:48;4.50;;;0.60;;
21486;SDS011;10905;50.822;4.336;2023-07-09T04:43:14;4.30;;;1.10;;
21486;SDS011;10905;50.822;4.336;2023-07-09T04:45:40;3.20;;;0.68;;
21486;SDS011;10905;50.822;4.336;2023-07-09T04:48:05;7.43;;;1.02;;
21486;SDS011;10905;50.822;4.336;2023-07-09T04:50:32;0.15;;;0.15;;
21486;SDS011;10905;50.822;4.336;2023-07-09T04:52:58;0.30;;;0.30;;
21486;SDS011;10905;50.822;4.336;2023-07-09T04:55:24;0.25;;;0.25;;
21486;SDS011;10905;50.822;4.336;2023-07-09T04:57:51;0.55;;;0.55;;
21486;SDS011;10905;50.822;4.336;2023-07-09T05:00:17;1.08;;;0.68;;
21486;SDS011;10905;50.822;4.336;2023-07-09T05:02:43;0.68;;;0.57;;
21486;SDS011;10905;50.822;4.336;2023-07-09T05:05:08;3.53;;;0.63;;
21486;SDS011;10905;50.822;4.336;2023-07-09T05:07:34;2.80;;;0.68;;
21486;SDS011;10905;50.822;4.336;2023-07-09T05:10:01;0.70;;;0.32;;
21486;SDS011;10905;50.822;4.336;2023-07-09T05:12:27;0.15;;;0.15;;
21486;SDS011;10905;50.822;4.336;2023-07-09T05:14:54;0.17;;;0.10;;
21486;SDS011;10905;50.822;4.336;2023-07-09T05:17:21;0.45;;;0.35;;
21486;SDS011;10905;50.822;4.336;2023-07-09T05:19:47;0.10;;;0.10;;
21486;SDS011;10905;50.822;4.336;2023-07-09T05:22:13;1.85;;;0.57;;
21486;SDS011;10905;50.822;4.336;2023-07-09T05:24:38;0.20;;;0.20;;
21486;SDS011;10905;50.822;4.336;2023-07-09T05:27:04;1.23;;;0.68;;
21486;SDS011;10905;50.822;4.336;2023-07-09T05:29:29;1.90;;;0.35;;
21486;SDS011;10905;50.822;4.336;2023-07-09T05:31:55;0.22;;;0.20;;
21486;SDS011;10905;50.822;4.336;2023-07-09T05:34:21;0.85;;;0.55;;
21486;SDS011;10905;50.822;4.336;2023-07-09T05:36:47;0.47;;;0.47;;
21486;SDS011;10905;50.822;4.336;2023-07-09T05:39:13;1.02;;;0.75;;
21486;SDS011;10905;50.822;4.336;2023-07-09T05:41:39;1.30;;;0.95;;
21486;SDS011;10905;50.822;4.336;2023-07-09T05:44:04;2.33;;;1.40;;
21486;SDS011;10905;50.822;4.336;2023-07-09T05:46:33;2.55;;;1.50;;
21486;SDS011;10905;50.822;4.336;2023-07-09T05:49:01;1.85;;;0.85;;
21486;SDS011;10905;50.822;4.336;2023-07-09T05:51:27;0.90;;;0.70;;
21486;SDS011;10905;50.822;4.336;2023-07-09T05:53:53;1.33;;;0.90;;
21486;SDS011;10905;50.822;4.336;2023-07-09T05:56:18;2.08;;;0.77;;
21486;SDS011;10905;50.822;4.336;2023-07-09T05:58:44;0.80;;;0.47;;
21486;SDS011;10905;50.822;4.336;2023-07-09T06:01:10;11.73;;;1.30;;
21486;SDS011;10905;50.822;4.336;2023-07-09T06:03:35;0.10;;;0.10;;
21486;SDS011;10905;50.822;4.336;2023-07-09T06:06:01;5.47;;;1.33;;
21486;SDS011;10905;50.822;4.336;2023-07-09T06:08:27;1.75;;;1.02;;
21486;SDS011;10905;50.822;4.336;2023-07-09T06:10:57;0.10;;;0.10;;
21486;SDS011;10905;50.822;4.336;2023-07-09T06:13:23;0.38;;;0.17;;
21486;SDS011;10905;50.822;4.336;2023-07-09T06:15:50;0.15;;;0.15;;
21486;SDS011;10905;50.822;4.336;2023-07-09T06:18:18;0.30;;;0.30;;
21486;SDS011;10905;50.822;4.336;2023-07-09T06:20:49;0.50;;;0.40;;
21486;SDS011;10905;50.822;4.336;2023-07-09T06:23:16;4.38;;;1.13;;
21486;SDS011;10905;50.822;4.336;2023-07-09T06:25:42;1.20;;;0.28;;
21486;SDS011;10905;50.822;4.336;2023-07-09T06:28:12;0.90;;;0.50;;
21486;SDS011;10905;50.822;4.336;2023-07-09T06:30:38;0.55;;;0.40;;
21486;SDS011;10905;50.822;4.336;2023-07-09T06:33:03;0.55;;;0.40;;
21486;SDS011;10905;50.822;4.336;2023-07-09T06:35:29;0.28;;;0.28;;
21486;SDS011;10905;50.822;4.336;2023-07-09T06:37:55;0.30;;;0.30;;
21486;SDS011;10905;50.822;4.336;2023-07-09T06:40:20;0.50;;;0.50;;
21486;SDS011;10905;50.822;4.336;2023-07-09T06:42:46;2.88;;;0.88;;
21486;SDS011;10905;50.822;4.336;2023-07-09T06:45:11;1.10;;;0.65;;
21486;SDS011;10905;50.822;4.336;2023-07-09T06:47:37;0.32;;;0.32;;
21486;SDS011;10905;50.822;4.336;2023-07-09T06:50:03;0.45;;;0.45;;
21486;SDS011;10905;50.822;4.336;2023-07-09T06:52:29;1.00;;;0.55;;
21486;SDS011;10905;50.822;4.336;2023-07-09T06:54:54;0.77;;;0.77;;
21486;SDS011;10905;50.822;4.336;2023-07-09T06:57:20;0.75;;;0.63;;
21486;SDS011;10905;50.822;4.336;2023-07-09T06:59:45;2.13;;;0.63;;
21486;SDS011;10905;50.822;4.336;2023-07-09T07:02:11;2.80;;;1.25;;
21486;SDS011;10905;50.822;4.336;2023-07-09T07:04:37;1.25;;;1.17;;
21486;SDS011;10905;50.822;4.336;2023-07-09T07:07:02;2.28;;;1.38;;
21486;SDS011;10905;50.822;4.336;2023-07-09T07:09:28;2.78;;;1.48;;
21486;SDS011;10905;50.822;4.336;2023-07-09T07:11:53;3.22;;;0.77;;
21486;SDS011;10905;50.822;4.336;2023-07-09T07:14:19;4.13;;;1.05;;
21486;SDS011;10905;50.822;4.336;2023-07-09T07:16:45;7.63;;;2.78;;
21486;SDS011;10905;50.822;4.336;2023-07-09T07:19:10;1.95;;;1.10;;
21486;SDS011;10905;50.822;4.336;2023-07-09T07:21:36;7.78;;;2.38;;
21486;SDS011;10905;50.822;4.336;2023-07-09T07:24:02;2.10;;;1.33;;
21486;SDS011;10905;50.822;4.336;2023-07-09T07:26:28;5.75;;;2.83;;
21486;SDS011;10905;50.822;4.336;2023-07-09T07:28:54;7.53;;;2.70;;
21486;SDS011;10905;50.822;4.336;2023-07-09T07:31:19;4.90;;;1.75;;
21486;SDS011;10905;50.822;4.336;2023-07-09T07:33:45;3.50;;;2.58;;
21486;SDS011;10905;50.822;4.336;2023-07-09T07:36:10;5.20;;;2.88;;
21486;SDS011;10905;50.822;4.336;2023-07-09T07:38:36;5.78;;;2.30;;
21486;SDS011;10905;50.822;4.336;2023-07-09T07:41:02;5.35;;;1.85;;
21486;SDS011;10905;50.822;4.336;2023-07-09T07:43:28;4.38;;;3.22;;
21486;SDS011;10905;50.822;4.336;2023-07-09T07:45:54;5.75;;;1.95;;
21486;SDS011;10905;50.822;4.336;2023-07-09T07:48:19;6.78;;;1.95;;
21486;SDS011;10905;50.822;4.336;2023-07-09T07:50:45;2.33;;;1.65;;
21486;SDS011;10905;50.822;4.336;2023-07-09T07:53:14;3.67;;;2.47;;
21486;SDS011;10905;50.822;4.336;2023-07-09T07:55:40;4.30;;;3.40;;
21486;SDS011;10905;50.822;4.336;2023-07-09T07:58:12;3.90;;;2.17;;
21486;SDS011;10905;50.822;4.336;2023-07-09T08:00:38;2.75;;;2.03;;
21486;SDS011;10905;50.822;4.336;2023-07-09T08:03:05;1.85;;;1.60;;
21486;SDS011;10905;50.822;4.336;2023-07-09T08:05:30;3.50;;;1.95;;
21486;SDS011;10905;50.822;4.336;2023-07-09T08:07:56;1.27;;;1.17;;
21486;SDS011;10905;50.822;4.336;2023-07-09T08:10:22;7.18;;;2.45;;
21486;SDS011;10905;50.822;4.336;2023-07-09T08:12:47;10.23;;;3.10;;
21486;SDS011;10905;50.822;4.336;2023-07-09T08:15:13;4.80;;;2.75;;
21486;SDS011;10905;50.822;4.336;2023-07-09T08:17:39;3.05;;;1.35;;
21486;SDS011;10905;50.822;4.336;2023-07-09T08:20:05;3.83;;;2.28;;
21486;SDS011;10905;50.822;4.336;2023-07-09T08:22:31;4.72;;;2.75;;
21486;SDS011;10905;50.822;4.336;2023-07-09T08:24:56;2.70;;;2.50;;
21486;SDS011;10905;50.822;4.336;2023-07-09T08:27:22;4.78;;;2.45;;
21486;SDS011;10905;50.822;4.336;2023-07-09T08:29:48;6.35;;;1.98;;
21486;SDS011;10905;50.822;4.336;2023-07-09T08:32:14;2.72;;;1.48;;
21486;SDS011;10905;50.822;4.336;2023-07-09T08:34:40;2.25;;;1.60;;
21486;SDS011;10905;50.822;4.336;2023-07-09T08:37:07;7.28;;;2.00;;
21486;SDS011;10905;50.822;4.336;2023-07-09T08:39:33;2.65;;;1.40;;
21486;SDS011;10905;50.822;4.336;2023-07-09T08:42:02;1.48;;;1.38;;
21486;SDS011;10905;50.822;4.336;2023-07-09T08:50:21;8.38;;;1.95;;
21486;SDS011;10905;50.822;4.336;2023-07-09T08:52:49;1.77;;;1.20;;
21486;SDS011;10905;50.822;4.336;2023-07-09T08:57:45;2.13;;;1.40;;
21486;SDS011;10905;50.822;4.336;2023-07-09T09:00:19;2.45;;;1.67;;
21486;SDS011;10905;50.822;4.336;2023-07-09T09:03:05;1.83;;;1.73;;
21486;SDS011;10905;50.822;4.336;2023-07-09T09:05:39;7.32;;;2.55;;
21486;SDS011;10905;50.822;4.336;2023-07-09T09:11:01;2.83;;;2.53;;
21486;SDS011;10905;50.822;4.336;2023-07-09T09:13:34;7.20;;;2.03;;
21486;SDS011;10905;50.822;4.336;2023-07-09T09:16:04;0.93;;;0.93;;
21486;SDS011;10905;50.822;4.336;2023-07-09T09:18:40;2.30;;;2.10;;
21486;SDS011;10905;50.822;4.336;2023-07-09T09:21:50;1.87;;;1.77;;
21486;SDS011;10905;50.822;4.336;2023-07-09T09:23:58;7.07;;;2.15;;
21486;SDS011;10905;50.822;4.336;2023-07-09T09:26:50;1.33;;;1.23;;
21486;SDS011;10905;50.822;4.336;2023-07-09T09:29:17;3.15;;;1.58;;
21486;SDS011;10905;50.822;4.336;2023-07-09T09:31:44;1.60;;;1.50;;
21486;SDS011;10905;50.822;4.336;2023-07-09T09:34:17;1.83;;;1.73;;
21486;SDS011;10905;50.822;4.336;2023-07-09T09:36:44;1.80;;;1.58;;
21486;SDS011;10905;50.822;4.336;2023-07-09T09:39:10;2.72;;;2.30;;
21486;SDS011;10905;50.822;4.336;2023-07-09T09:41:36;1.92;;;1.63;;
21486;SDS011;10905;50.822;4.336;2023-07-09T09:44:03;3.47;;;1.48;;
21486;SDS011;10905;50.822;4.336;2023-07-09T09:46:31;2.67;;;1.85;;
21486;SDS011;10905;50.822;4.336;2023-07-09T09:49:00;1.67;;;1.58;;
21486;SDS011;10905;50.822;4.336;2023-07-09T09:53:57;4.35;;;0.98;;
21486;SDS011;10905;50.822;4.336;2023-07-09T09:56:26;1.27;;;1.10;;
21486;SDS011;10905;50.822;4.336;2023-07-09T09:58:54;5.93;;;1.23;;
21486;SDS011;10905;50.822;4.336;2023-07-09T10:01:25;5.97;;;1.00;;
21486;SDS011;10905;50.822;4.336;2023-07-09T10:04:03;1.50;;;1.40;;
21486;SDS011;10905;50.822;4.336;2023-07-09T10:06:36;2.90;;;1.65;;
21486;SDS011;10905;50.822;4.336;2023-07-09T10:12:10;2.30;;;1.15;;
21486;SDS011;10905;50.822;4.336;2023-07-09T10:14:51;3.25;;;1.67;;
21486;SDS011;10905;50.822;4.336;2023-07-09T10:22:24;2.78;;;1.58;;
21486;SDS011;10905;50.822;4.336;2023-07-09T10:24:56;7.55;;;0.95;;
21486;SDS011;10905;50.822;4.336;2023-07-09T10:40:17;0.65;;;0.30;;
21486;SDS011;10905;50.822;4.336;2023-07-09T10:43:01;4.60;;;1.90;;
21486;SDS011;10905;50.822;4.336;2023-07-09T10:45:30;1.00;;;0.90;;
21486;SDS011;10905;50.822;4.336;2023-07-09T10:48:03;2.65;;;0.95;;
21486;SDS011;10905;50.822;4.336;2023-07-09T10:50:37;2.28;;;1.63;;
21486;SDS011;10905;50.822;4.336;2023-07-09T10:53:14;4.67;;;1.50;;
21486;SDS011;10905;50.822;4.336;2023-07-09T10:56:00;2.90;;;1.65;;
21486;SDS011;10905;50.822;4.336;2023-07-09T10:58:37;1.92;;;1.33;;
21486;SDS011;10905;50.822;4.336;2023-07-09T11:01:22;2.65;;;1.35;;
21486;SDS011;10905;50.822;4.336;2023-07-09T11:04:01;2.00;;;1.50;;
21486;SDS011;10905;50.822;4.336;2023-07-09T11:08:59;2.58;;;1.58;;
21486;SDS011;10905;50.822;4.336;2023-07-09T11:11:37;0.77;;;0.50;;
21486;SDS011;10905;50.822;4.336;2023-07-09T11:14:10;1.67;;;0.88;;
21486;SDS011;10905;50.822;4.336;2023-07-09T11:16:46;0.82;;;0.82;;
21486;SDS011;10905;50.822;4.336;2023-07-09T11:19:14;0.20;;;0.20;;
21486;SDS011;10905;50.822;4.336;2023-07-09T11:24:31;0.50;;;0.43;;
21486;SDS011;10905;50.822;4.336;2023-07-09T11:27:19;0.20;;;0.20;;
21486;SDS011;10905;50.822;4.336;2023-07-09T11:30:03;0.40;;;0.40;;
21486;SDS011;10905;50.822;4.336;2023-07-09T11:32:47;0.30;;;0.30;;
21486;SDS011;10905;50.822;4.336;2023-07-09T11:35:20;1.10;;;0.30;;
21486;SDS011;10905;50.822;4.336;2023-07-09T11:37:48;1.13;;;0.73;;
21486;SDS011;10905;50.822;4.336;2023-07-09T11:40:14;0.70;;;0.43;;
21486;SDS011;10905;50.822;4.336;2023-07-09T11:42:50;1.73;;;0.82;;
21486;SDS011;10905;50.822;4.336;2023-07-09T11:45:23;0.47;;;0.40;;
21486;SDS011;10905;50.822;4.336;2023-07-09T11:48:00;0.35;;;0.35;;
21486;SDS011;10905;50.822;4.336;2023-07-09T11:50:44;1.33;;;0.70;;
21486;SDS011;10905;50.822;4.336;2023-07-09T11:53:48;0.45;;;0.45;;
21486;SDS011;10905;50.822;4.336;2023-07-09T11:56:07;0.52;;;0.40;;
21486;SDS011;10905;50.822;4.336;2023-07-09T11:58:33;0.73;;;0.40;;
21486;SDS011;10905;50.822;4.336;2023-07-09T12:00:58;0.25;;;0.25;;
21486;SDS011;10905;50.822;4.336;2023-07-09T12:03:27;0.20;;;0.20;;
21486;SDS011;10905;50.822;4.336;2023-07-09T12:06:07;0.40;;;0.30;;
21486;SDS011;10905;50.822;4.336;2023-07-09T12:08:49;0.93;;;0.45;;
21486;SDS011;10905;50.822;4.336;2023-07-09T12:11:27;0.75;;;0.38;;
21486;SDS011;10905;50.822;4.336;2023-07-09T12:14:04;0.10;;;0.10;;
21486;SDS011;10905;50.822;4.336;2023-07-09T12:16:35;2.80;;;0.50;;
21486;SDS011;10905;50.822;4.336;2023-07-09T12:19:03;7.88;;;0.77;;
21486;SDS011;10905;50.822;4.336;2023-07-09T12:21:29;2.80;;;0.43;;
21486;SDS011;10905;50.822;4.336;2023-07-09T12:23:56;0.55;;;0.10;;
21486;SDS011;10905;50.822;4.336;2023-07-09T12:26:22;10.88;;;0.63;;
21486;SDS011;10905;50.822;4.336;2023-07-09T12:28:55;3.65;;;0.80;;
21486;SDS011;10905;50.822;4.336;2023-07-09T12:31:27;3.35;;;0.98;;
21486;SDS011;10905;50.822;4.336;2023-07-09T12:33:54;0.40;;;0.40;;
21486;SDS011;10905;50.822;4.336;2023-07-09T12:36:22;4.30;;;1.33;;
21486;SDS011;10905;50.822;4.336;2023-07-09T12:38:50;0.50;;;0.50;;
21486;SDS011;10905;50.822;4.336;2023-07-09T12:42:01;0.68;;;0.47;;
21486;SDS011;10905;50.822;4.336;2023-07-09T12:44:26;0.30;;;0.30;;
21486;SDS011;10905;50.822;4.336;2023-07-09T12:46:56;3.97;;;0.90;;
21486;SDS011;10905;50.822;4.336;2023-07-09T12:51:48;0.52;;;0.30;;
21486;SDS011;10905;50.822;4.336;2023-07-09T12:54:15;0.70;;;0.50;;
21486;SDS011;10905;50.822;4.336;2023-07-09T12:56:42;1.77;;;0.63;;
21486;SDS011;10905;50.822;4.336;2023-07-09T12:59:18;0.45;;;0.28;;
21486;SDS011;10905;50.822;4.336;2023-07-09T13:04:43;1.13;;;0.57;;
21486;SDS011;10905;50.822;4.336;2023-07-09T13:10:23;8.35;;;0.90;;
21486;SDS011;10905;50.822;4.336;2023-07-09T13:13:02;0.95;;;0.63;;
21486;SDS011;10905;50.822;4.336;2023-07-09T13:15:31;1.20;;;0.93;;
21486;SDS011;10905;50.822;4.336;2023-07-09T13:18:05;1.08;;;1.00;;
21486;SDS011;10905;50.822;4.336;2023-07-09T13:20:32;4.95;;;0.90;;
21486;SDS011;10905;50.822;4.336;2023-07-09T13:23:04;2.28;;;1.27;;
21486;SDS011;10905;50.822;4.336;2023-07-09T13:25:34;0.20;;;0.20;;
21486;SDS011;10905;50.822;4.336;2023-07-09T13:28:01;2.22;;;1.25;;
21486;SDS011;10905;50.822;4.336;2023-07-09T13:30:26;1.58;;;0.70;;
21486;SDS011;10905;50.822;4.336;2023-07-09T13:32:52;0.70;;;0.63;;
21486;SDS011;10905;50.822;4.336;2023-07-09T13:35:18;0.93;;;0.60;;
21486;SDS011;10905;50.822;4.336;2023-07-09T13:37:45;1.23;;;0.70;;
21486;SDS011;10905;50.822;4.336;2023-07-09T13:40:12;1.75;;;0.75;;
21486;SDS011;10905;50.822;4.336;2023-07-09T13:42:40;0.30;;;0.30;;
21486;SDS011;10905;50.822;4.336;2023-07-09T13:45:23;0.73;;;0.63;;
21486;SDS011;10905;50.822;4.336;2023-07-09T13:47:52;2.33;;;0.98;;
21486;SDS011;10905;50.822;4.336;2023-07-09T13:50:19;0.63;;;0.60;;
21486;SDS011;10905;50.822;4.336;2023-07-09T13:52:45;1.02;;;0.63;;
21486;SDS011;10905;50.822;4.336;2023-07-09T13:55:21;1.10;;;0.70;;
21486;SDS011;10905;50.822;4.336;2023-07-09T13:57:48;0.30;;;0.30;;
21486;SDS011;10905;50.822;4.336;2023-07-09T14:00:14;0.88;;;0.73;;
21486;SDS011;10905;50.822;4.336;2023-07-09T14:02:41;0.50;;;0.50;;
21486;SDS011;10905;50.822;4.336;2023-07-09T14:05:09;0.85;;;0.38;;
21486;SDS011;10905;50.822;4.336;2023-07-09T14:07:37;3.88;;;1.08;;
21486;SDS011;10905;50.822;4.336;2023-07-09T14:10:06;1.10;;;0.77;;
21486;SDS011;10905;50.822;4.336;2023-07-09T14:12:36;0.20;;;0.20;;
21486;SDS011;10905;50.822;4.336;2023-07-09T14:15:05;0.80;;;0.35;;
21486;SDS011;10905;50.822;4.336;2023-07-09T14:17:42;0.22;;;0.22;;
21486;SDS011;10905;50.822;4.336;2023-07-09T14:20:12;0.70;;;0.63;;
21486;SDS011;10905;50.822;4.336;2023-07-09T14:22:40;0.10;;;0.10;;
21486;SDS011;10905;50.822;4.336;2023-07-09T14:25:09;1.10;;;0.52;;
21486;SDS011;10905;50.822;4.336;2023-07-09T14:27:45;0.47;;;0.47;;
21486;SDS011;10905;50.822;4.336;2023-07-09T14:30:14;3.60;;;0.95;;
21486;SDS011;10905;50.822;4.336;2023-07-09T14:32:40;0.52;;;0.45;;
21486;SDS011;10905;50.822;4.336;2023-07-09T14:37:43;2.17;;;1.30;;
21486;SDS011;10905;50.822;4.336;2023-07-09T14:40:10;4.45;;;0.88;;
21486;SDS011;10905;50.822;4.336;2023-07-09T14:42:40;0.55;;;0.28;;
21486;SDS011;10905;50.822;4.336;2023-07-09T14:45:15;0.20;;;0.13;;
21486;SDS011;10905;50.822;4.336;2023-07-09T14:47:43;0.25;;;0.20;;
21486;SDS011;10905;50.822;4.336;2023-07-09T14:50:09;0.47;;;0.47;;
21486;SDS011;10905;50.822;4.336;2023-07-09T14:52:35;4.43;;;0.20;;
21486;SDS011;10905;50.822;4.336;2023-07-09T14:55:01;1.88;;;1.05;;
21486;SDS011;10905;50.822;4.336;2023-07-09T14:57:27;0.63;;;0.57;;
21486;SDS011;10905;50.822;4.336;2023-07-09T14:59:55;13.05;;;0.93;;
21486;SDS011;10905;50.822;4.336;2023-07-09T15:05:00;0.10;;;0.10;;
21486;SDS011;10905;50.822;4.336;2023-07-09T15:07:27;1.35;;;0.43;;
21486;SDS011;10905;50.822;4.336;2023-07-09T15:09:55;0.38;;;0.38;;
21486;SDS011;10905;50.822;4.336;2023-07-09T15:12:24;1.67;;;0.50;;
21486;SDS011;10905;50.822;4.336;2023-07-09T15:14:57;0.55;;;0.40;;
21486;SDS011;10905;50.822;4.336;2023-07-09T15:17:31;0.20;;;0.20;;
21486;SDS011;10905;50.822;4.336;2023-07-09T15:19:56;0.70;;;0.43;;
21486;SDS011;10905;50.822;4.336;2023-07-09T15:22:32;0.38;;;0.38;;
21486;SDS011;10905;50.822;4.336;2023-07-09T15:24:59;1.45;;;0.63;;
21486;SDS011;10905;50.822;4.336;2023-07-09T15:27:24;1.40;;;0.80;;
21486;SDS011;10905;50.822;4.336;2023-07-09T15:29:51;0.63;;;0.13;;
21486;SDS011;10905;50.822;4.336;2023-07-09T15:32:16;0.90;;;0.55;;
21486;SDS011;10905;50.822;4.336;2023-07-09T15:34:42;0.25;;;0.25;;
21486;SDS011;10905;50.822;4.336;2023-07-09T15:37:12;0.40;;;0.40;;
21486;SDS011;10905;50.822;4.336;2023-07-09T15:39:39;0.40;;;0.40;;
21486;SDS011;10905;50.822;4.336;2023-07-09T15:42:12;0.60;;;0.52;;
21486;SDS011;10905;50.822;4.336;2023-07-09T15:44:38;0.57;;;0.30;;
21486;SDS011;10905;50.822;4.336;2023-07-09T15:47:05;0.88;;;0.25;;
21486;SDS011;10905;50.822;4.336;2023-07-09T15:49:38;0.35;;;0.30;;